Time;durP1;ratioP1;P1;durP2;ratioP2;P2;SDS_P1;SDS_P2;PMS_P1;PMS_P2;Temp;Humidity;BMP_temperature;BMP_pressure;BME280_temperature;BME280_humidity;BME280_pressure;Samples;Min_cycle;Max_cycle;Signal;HPM_P1;HPM_P2
2024/03/02 00:01:39;;;;;;;2.72;2.42;;;4.70;99.90;;;;;;477023;249;27982;-74
2024/03/02 00:03:40;;;;;;;2.05;1.95;;;4.60;99.90;;;;;;468084;251;28037;-73
2024/03/02 00:05:41;;;;;;;2.65;2.45;;;4.60;99.90;;;;;;476864;249;28000;-73
2024/03/02 00:07:42;;;;;;;2.67;2.47;;;4.70;99.90;;;;;;468060;251;27409;-73
2024/03/02 00:09:44;;;;;;;2.22;2.05;;;4.70;99.90;;;;;;477024;249;27515;-73
2024/03/02 00:11:45;;;;;;;4.00;2.65;;;4.70;99.90;;;;;;468108;251;27548;-74
2024/03/02 00:13:46;;;;;;;4.10;2.42;;;4.70;99.90;;;;;;476966;249;27438;-72
2024/03/02 00:15:47;;;;;;;3.00;2.75;;;4.70;99.90;;;;;;468093;251;27474;-73
2024/03/02 00:17:49;;;;;;;2.50;2.30;;;4.70;99.90;;;;;;476976;249;27458;-75
2024/03/02 00:19:50;;;;;;;3.87;2.58;;;4.70;99.90;;;;;;468135;251;27871;-73
2024/03/02 00:21:51;;;;;;;2.37;2.17;;;4.70;99.90;;;;;;476988;249;27973;-74
2024/03/02 00:23:52;;;;;;;3.17;2.60;;;4.70;99.90;;;;;;468079;251;27968;-73
2024/03/02 00:25:54;;;;;;;2.30;2.10;;;4.70;99.90;;;;;;476968;249;27502;-73
2024/03/02 00:27:55;;;;;;;2.40;2.30;;;4.70;99.90;;;;;;468079;251;27481;-74
2024/03/02 00:29:56;;;;;;;3.08;2.25;;;4.60;99.90;;;;;;477009;249;27430;-73
2024/03/02 00:31:57;;;;;;;3.17;2.50;;;4.60;99.90;;;;;;468139;251;27529;-73
2024/03/02 00:33:59;;;;;;;2.40;2.20;;;4.60;99.90;;;;;;476928;249;27446;-72
2024/03/02 00:36:00;;;;;;;6.72;2.28;;;4.60;99.90;;;;;;468135;251;27549;-73
2024/03/02 00:38:02;;;;;;;2.00;1.90;;;4.60;99.90;;;;;;476964;249;27474;-74
2024/03/02 00:40:04;;;;;;;2.53;2.10;;;4.60;99.90;;;;;;468112;251;27910;-73
2024/03/02 00:42:04;;;;;;;2.20;2.10;;;4.50;99.90;;;;;;476914;249;27897;-73
2024/03/02 00:44:08;;;;;;;3.80;2.30;;;4.60;99.90;;;;;;468118;251;27443;-73
2024/03/02 00:46:09;;;;;;;3.05;2.30;;;4.60;99.90;;;;;;476968;249;27430;-73
2024/03/02 00:48:10;;;;;;;3.85;2.37;;;4.60;99.90;;;;;;468056;251;27425;-73
2024/03/02 00:50:11;;;;;;;3.22;2.75;;;4.60;99.90;;;;;;476994;249;27438;-73
2024/03/02 00:52:13;;;;;;;3.03;2.20;;;4.60;99.90;;;;;;468097;251;27422;-73
2024/03/02 00:54:14;;;;;;;2.25;2.05;;;4.60;99.90;;;;;;476885;249;27442;-73
2024/03/02 00:56:15;;;;;;;2.70;2.35;;;4.60;99.90;;;;;;468128;251;28012;-74
2024/03/02 00:58:16;;;;;;;2.70;2.30;;;4.60;99.90;;;;;;476901;249;27858;-73
2024/03/02 01:00:18;;;;;;;2.90;2.08;;;4.70;99.90;;;;;;467924;251;27453;-73
2024/03/02 01:02:20;;;;;;;2.55;2.35;;;4.70;99.90;;;;;;476949;249;27438;-73
2024/03/02 01:04:20;;;;;;;2.45;2.30;;;4.70;99.90;;;;;;468035;254;27538;-72
2024/03/02 01:06:22;;;;;;;4.15;2.70;;;4.60;99.90;;;;;;477023;249;27490;-74
2024/03/02 01:08:23;;;;;;;2.70;2.50;;;4.60;99.90;;;;;;468066;251;27430;-73
2024/03/02 01:10:25;;;;;;;2.42;2.22;;;4.60;99.90;;;;;;476924;249;27537;-73
2024/03/02 01:12:25;;;;;;;2.70;2.50;;;4.70;99.90;;;;;;468057;251;27419;-73
2024/03/02 01:14:26;;;;;;;2.28;2.12;;;4.60;99.90;;;;;;476926;249;28050;-73
2024/03/02 01:16:28;;;;;;;2.75;1.98;;;4.60;99.90;;;;;;468114;251;27979;-74
2024/03/02 01:18:29;;;;;;;2.67;2.47;;;4.60;99.90;;;;;;476949;249;27422;-72
2024/03/02 01:20:30;;;;;;;2.50;2.30;;;4.60;99.90;;;;;;468095;251;27460;-73
2024/03/02 01:22:31;;;;;;;2.50;2.30;;;4.70;99.90;;;;;;476985;249;27462;-73
2024/03/02 01:24:33;;;;;;;2.78;2.58;;;4.70;99.90;;;;;;468097;251;27423;-73
2024/03/02 01:26:34;;;;;;;2.70;2.50;;;4.70;99.90;;;;;;476979;249;27529;-74
2024/03/02 01:28:35;;;;;;;2.50;2.40;;;4.60;99.90;;;;;;468074;251;27506;-73
2024/03/02 01:30:36;;;;;;;3.33;3.03;;;4.60;99.90;;;;;;476974;249;27434;-73
2024/03/02 01:32:38;;;;;;;2.37;2.17;;;4.60;99.90;;;;;;468149;251;27957;-74
2024/03/02 01:34:39;;;;;;;4.40;2.80;;;4.70;99.90;;;;;;476964;249;27454;-73
2024/03/02 01:36:40;;;;;;;2.75;2.55;;;4.70;99.90;;;;;;468105;251;27578;-73
2024/03/02 01:38:41;;;;;;;3.00;2.70;;;4.70;99.90;;;;;;476923;249;27422;-73
2024/03/02 01:40:44;;;;;;;2.87;2.30;;;4.70;99.90;;;;;;468142;251;27522;-73
2024/03/02 01:42:44;;;;;;;3.47;3.17;;;4.70;99.90;;;;;;476938;249;27450;-74
2024/03/02 01:44:45;;;;;;;3.25;2.95;;;4.70;99.90;;;;;;468060;251;27891;-73
2024/03/02 01:46:46;;;;;;;2.75;2.55;;;4.70;99.90;;;;;;476936;249;27909;-72
2024/03/02 01:48:48;;;;;;;3.30;2.95;;;4.70;99.90;;;;;;468066;251;27965;-73
2024/03/02 01:50:49;;;;;;;2.72;2.53;;;4.80;99.90;;;;;;476983;249;27527;-73
2024/03/02 01:52:50;;;;;;;4.03;2.78;;;4.70;99.90;;;;;;468116;251;27490;-76
2024/03/02 01:54:51;;;;;;;3.30;3.00;;;4.70;99.90;;;;;;476952;249;27402;-73
2024/03/02 01:56:53;;;;;;;2.53;2.30;;;4.70;99.90;;;;;;468095;251;27466;-73
2024/03/02 01:58:54;;;;;;;3.15;2.60;;;4.70;99.90;;;;;;476958;249;27767;-73
2024/03/02 02:00:55;;;;;;;2.70;2.50;;;4.70;99.90;;;;;;468110;251;27526;-73
2024/03/02 02:02:57;;;;;;;2.65;2.45;;;4.80;99.90;;;;;;476970;249;27945;-73
2024/03/02 02:04:58;;;;;;;2.75;2.55;;;4.80;99.90;;;;;;468084;251;27886;-72
2024/03/02 02:06:59;;;;;;;3.10;2.87;;;4.90;99.90;;;;;;476965;249;28030;-73
2024/03/02 02:09:00;;;;;;;3.25;3.00;;;4.90;99.90;;;;;;468144;251;27453;-73
2024/03/02 02:11:02;;;;;;;7.72;3.47;;;4.90;99.90;;;;;;477000;249;27489;-73
2024/03/02 02:13:03;;;;;;;3.97;3.10;;;4.90;99.90;;;;;;468113;251;27448;-73
2024/03/02 02:15:05;;;;;;;3.42;3.10;;;4.90;99.90;;;;;;476995;249;27402;-73
2024/03/02 02:17:05;;;;;;;3.45;3.03;;;4.90;99.90;;;;;;468086;251;27415;-73
2024/03/02 02:19:07;;;;;;;3.78;3.35;;;4.90;99.90;;;;;;477048;249;27471;-73
2024/03/02 02:21:08;;;;;;;4.07;2.97;;;4.90;99.90;;;;;;468134;251;27890;-72
2024/03/02 02:23:09;;;;;;;4.15;3.00;;;4.90;99.90;;;;;;477007;249;28028;-73
2024/03/02 02:25:10;;;;;;;2.92;2.65;;;5.00;99.90;;;;;;468166;251;28094;-75
2024/03/02 02:27:14;;;;;;;3.87;3.47;;;4.90;99.90;;;;;;477001;249;27391;-74
2024/03/02 02:29:13;;;;;;;6.35;3.30;;;4.90;99.90;;;;;;467995;254;27454;-73
2024/03/02 02:31:14;;;;;;;3.22;3.03;;;4.90;99.90;;;;;;476999;249;27399;-73
2024/03/02 02:33:15;;;;;;;3.67;3.37;;;4.90;99.90;;;;;;468168;251;27553;-72
2024/03/02 02:35:17;;;;;;;3.50;3.15;;;4.90;99.90;;;;;;477043;249;27513;-74
2024/03/02 02:37:18;;;;;;;4.62;4.00;;;4.90;99.90;;;;;;468145;251;27557;-73
2024/03/02 02:39:19;;;;;;;7.65;5.05;;;5.00;99.90;;;;;;476906;249;27922;-73
2024/03/02 02:41:20;;;;;;;4.82;4.32;;;5.00;99.90;;;;;;468121;251;28956;-73
2024/03/02 02:43:22;;;;;;;3.87;3.50;;;5.00;99.90;;;;;;477008;249;27483;-73
2024/03/02 02:45:23;;;;;;;5.93;3.62;;;5.00;99.90;;;;;;468120;251;27558;-74
2024/03/02 02:47:24;;;;;;;4.32;3.70;;;5.00;99.90;;;;;;476931;249;27513;-73
2024/03/02 02:49:25;;;;;;;3.90;3.58;;;5.00;99.90;;;;;;468104;251;27462;-73
2024/03/02 02:51:27;;;;;;;4.85;3.72;;;5.00;99.90;;;;;;477037;249;27442;-75
2024/03/02 02:53:28;;;;;;;4.75;3.60;;;5.00;99.90;;;;;;468129;251;27494;-73
2024/03/02 02:55:29;;;;;;;4.10;3.72;;;4.90;99.90;;;;;;477001;249;27449;-73
2024/03/02 02:57:34;;;;;;;6.22;4.40;;;4.90;99.90;;;;;;468052;251;27928;-73
2024/03/02 02:59:32;;;;;;;4.12;3.72;;;4.80;99.90;;;;;;476704;249;27913;-72
2024/03/02 03:01:33;;;;;;;4.25;3.85;;;4.90;99.90;;;;;;468147;251;27557;-73
2024/03/02 03:03:34;;;;;;;5.45;3.70;;;4.90;99.90;;;;;;476987;249;27401;-73
2024/03/02 03:05:35;;;;;;;5.32;4.40;;;4.90;99.90;;;;;;468134;251;27456;-73
2024/03/02 03:07:37;;;;;;;4.32;3.92;;;4.90;99.90;;;;;;476873;249;27425;-73
2024/03/02 03:09:41;;;;;;;4.00;3.42;;;4.90;99.90;;;;;;468091;251;27422;-73
2024/03/02 03:11:39;;;;;;;5.15;4.32;;;4.90;99.90;;;;;;476237;249;27454;-73
2024/03/02 03:13:40;;;;;;;4.00;3.60;;;4.90;99.90;;;;;;476945;249;27871;-73
2024/03/02 03:15:42;;;;;;;7.60;3.80;;;4.90;99.90;;;;;;467993;251;28011;-73
2024/03/02 03:17:43;;;;;;;7.30;3.60;;;4.80;99.90;;;;;;476941;249;28094;-73
2024/03/02 03:19:44;;;;;;;5.30;3.87;;;4.80;99.90;;;;;;468095;251;27414;-73
2024/03/02 03:21:45;;;;;;;4.57;4.18;;;4.80;99.90;;;;;;476965;249;27547;-73
2024/03/02 03:23:47;;;;;;;5.37;4.10;;;4.70;99.90;;;;;;468091;251;27481;-73
2024/03/02 03:25:48;;;;;;;8.10;4.80;;;4.70;99.90;;;;;;476954;249;27474;-72
2024/03/02 03:27:50;;;;;;;4.35;3.80;;;4.70;99.90;;;;;;468104;251;27796;-74
2024/03/02 03:29:51;;;;;;;4.07;3.58;;;4.80;99.90;;;;;;476971;249;27998;-73
2024/03/02 03:31:52;;;;;;;5.57;4.05;;;4.70;99.90;;;;;;468107;253;27557;-73
2024/03/02 03:33:53;;;;;;;4.05;3.65;;;4.60;99.90;;;;;;476941;249;27411;-73
2024/03/02 03:35:54;;;;;;;5.80;4.05;;;4.70;99.90;;;;;;468109;251;27585;-73
2024/03/02 03:37:56;;;;;;;4.87;4.05;;;4.60;99.90;;;;;;476968;249;27480;-74
2024/03/02 03:39:57;;;;;;;7.95;4.03;;;4.70;99.90;;;;;;468113;254;27423;-73
2024/03/02 03:41:58;;;;;;;4.47;4.07;;;4.70;99.90;;;;;;476981;249;27521;-73
2024/03/02 03:43:59;;;;;;;5.20;4.50;;;4.70;99.90;;;;;;468119;251;27462;-72
2024/03/02 03:46:01;;;;;;;8.25;4.45;;;4.60;99.90;;;;;;477010;249;27976;-73
2024/03/02 03:48:02;;;;;;;5.50;4.50;;;4.70;99.90;;;;;;468047;254;28095;-73
2024/03/02 03:50:06;;;;;;;5.75;4.70;;;4.70;99.90;;;;;;476982;249;27961;-73
2024/03/02 03:52:04;;;;;;;6.15;4.50;;;4.90;99.90;;;;;;467877;254;27453;-73
2024/03/02 03:54:06;;;;;;;6.05;4.78;;;5.00;99.90;;;;;;477008;249;27429;-74
2024/03/02 03:56:07;;;;;;;7.28;5.30;;;5.10;99.90;;;;;;468111;251;27498;-73
2024/03/02 03:58:08;;;;;;;6.37;4.43;;;5.10;99.90;;;;;;476953;249;27446;-74
2024/03/02 04:00:10;;;;;;;7.30;5.87;;;5.10;99.90;;;;;;468110;251;27458;-72
2024/03/02 04:02:12;;;;;;;7.00;5.50;;;5.10;99.90;;;;;;476995;249;27427;-73
2024/03/02 04:04:12;;;;;;;6.37;4.80;;;5.10;99.90;;;;;;468085;251;27980;-74
2024/03/02 04:06:13;;;;;;;7.22;4.82;;;5.10;99.90;;;;;;476997;249;27926;-73
2024/03/02 04:08:14;;;;;;;5.05;4.45;;;5.20;99.90;;;;;;468063;251;28040;-73
2024/03/02 04:10:17;;;;;;;5.28;4.78;;;5.20;99.90;;;;;;476988;249;27502;-73
2024/03/02 04:12:17;;;;;;;5.95;4.20;;;5.20;99.90;;;;;;468121;251;27426;-72
2024/03/02 04:14:18;;;;;;;5.40;4.60;;;5.20;99.90;;;;;;476986;249;27821;-73
2024/03/02 04:16:19;;;;;;;7.45;5.75;;;5.20;99.90;;;;;;468104;251;27490;-73
2024/03/02 04:18:21;;;;;;;7.18;4.97;;;5.20;99.90;;;;;;476962;249;27540;-73
2024/03/02 04:20:22;;;;;;;7.10;5.50;;;5.10;99.90;;;;;;468143;251;28198;-74
2024/03/02 04:22:23;;;;;;;8.43;5.43;;;5.10;99.90;;;;;;476996;249;27984;-72
2024/03/02 04:24:24;;;;;;;7.28;5.10;;;5.20;99.90;;;;;;468118;251;28063;-73
2024/03/02 04:26:26;;;;;;;8.13;4.68;;;5.20;99.90;;;;;;476991;249;27395;-73
2024/03/02 04:28:27;;;;;;;5.85;5.00;;;5.20;99.90;;;;;;468074;251;27453;-73
2024/03/02 04:30:28;;;;;;;5.25;4.75;;;5.20;99.90;;;;;;477024;249;27442;-75
2024/03/02 04:32:29;;;;;;;6.10;5.10;;;5.30;99.90;;;;;;468121;251;27530;-73
2024/03/02 04:34:31;;;;;;;9.23;5.35;;;5.40;99.90;;;;;;476979;249;27458;-73
2024/03/02 04:36:32;;;;;;;6.25;4.93;;;5.40;99.90;;;;;;468111;251;28488;-72
2024/03/02 04:38:33;;;;;;;5.97;4.62;;;5.50;99.90;;;;;;476974;249;27875;-73
2024/03/02 04:40:34;;;;;;;6.55;4.82;;;5.50;99.90;;;;;;468141;251;27585;-73
2024/03/02 04:42:36;;;;;;;6.45;4.80;;;5.60;99.90;;;;;;476984;249;27493;-73
2024/03/02 04:44:38;;;;;;;6.35;4.90;;;5.70;99.90;;;;;;468099;251;27477;-73
2024/03/02 04:46:38;;;;;;;5.50;4.87;;;5.70;99.90;;;;;;477016;249;27839;-73
2024/03/02 04:48:39;;;;;;;6.20;4.43;;;5.80;99.90;;;;;;468087;251;27466;-73
2024/03/02 04:50:41;;;;;;;5.95;4.82;;;5.90;99.90;;;;;;477006;249;27950;-73
2024/03/02 04:52:42;;;;;;;5.80;4.60;;;5.90;99.90;;;;;;468098;251;27886;-73
2024/03/02 04:57:03;;;;;;;8.05;4.85;;;6.00;99.90;;;;;;476484;249;27538;-73
2024/03/02 04:59:04;;;;;;;5.75;4.05;;;6.00;99.90;;;;;;476997;249;27879;-72
2024/03/02 05:01:06;;;;;;;8.48;5.00;;;5.90;99.90;;;;;;468086;251;28027;-73
2024/03/02 05:03:06;;;;;;;5.28;4.57;;;5.90;99.90;;;;;;477003;249;27541;-74
2024/03/02 05:05:08;;;;;;;5.32;4.60;;;5.90;99.90;;;;;;468104;251;27425;-73
2024/03/02 05:07:09;;;;;;;6.25;4.47;;;5.90;99.90;;;;;;476844;249;27458;-74
2024/03/02 05:09:10;;;;;;;5.60;4.10;;;6.00;99.90;;;;;;468118;251;27434;-73
2024/03/02 05:13:31;;;;;;;6.85;4.95;;;6.10;99.90;;;;;;476558;249;27466;-73
2024/03/02 05:15:32;;;;;;;5.20;4.65;;;6.10;99.90;;;;;;476977;249;27474;-73
2024/03/02 05:17:34;;;;;;;3.70;3.40;;;6.10;99.90;;;;;;468079;251;27965;-73
2024/03/02 05:19:35;;;;;;;5.95;4.62;;;6.10;99.90;;;;;;477030;249;27971;-75
2024/03/02 05:21:36;;;;;;;8.32;4.25;;;6.20;99.90;;;;;;468179;251;27494;-73
2024/03/02 05:23:37;;;;;;;5.30;4.12;;;6.20;99.90;;;;;;476995;249;27462;-74
2024/03/02 05:25:39;;;;;;;6.63;4.67;;;6.20;99.90;;;;;;468122;251;27439;-73
2024/03/02 05:27:40;;;;;;;5.28;4.10;;;6.20;99.90;;;;;;476981;249;27952;-73
2024/03/02 05:29:41;;;;;;;5.03;4.47;;;6.30;99.90;;;;;;468154;251;27465;-73
2024/03/02 05:31:42;;;;;;;6.00;4.33;;;6.20;99.90;;;;;;476992;249;27980;-73
2024/03/02 05:33:44;;;;;;;3.90;3.53;;;6.20;99.90;;;;;;468083;253;29419;-73
2024/03/02 05:35:45;;;;;;;4.95;3.87;;;6.30;99.90;;;;;;476998;249;27446;-75
2024/03/02 05:37:46;;;;;;;4.93;3.90;;;6.30;99.90;;;;;;468108;251;27434;-73
2024/03/02 05:39:47;;;;;;;5.15;4.00;;;6.30;99.90;;;;;;477003;249;27527;-74
2024/03/02 05:41:49;;;;;;;4.40;3.83;;;6.40;99.90;;;;;;468092;251;27416;-73
2024/03/02 05:43:50;;;;;;;5.60;3.85;;;6.40;99.90;;;;;;476986;249;27486;-73
2024/03/02 05:45:51;;;;;;;6.10;3.93;;;6.40;99.90;;;;;;468165;251;27953;-74
2024/03/02 05:47:53;;;;;;;4.25;3.70;;;6.40;99.90;;;;;;476985;249;28745;-73
2024/03/02 05:49:54;;;;;;;3.80;3.47;;;6.40;99.90;;;;;;468108;253;27497;-73
2024/03/02 05:51:55;;;;;;;3.80;3.40;;;6.40;99.90;;;;;;477027;249;28607;-73
2024/03/02 05:53:56;;;;;;;4.18;3.45;;;6.50;99.90;;;;;;468097;251;29329;-72
2024/03/02 05:55:58;;;;;;;4.93;4.00;;;6.40;99.90;;;;;;477037;249;27450;-74
2024/03/02 06:00:18;;;;;;;4.83;4.23;;;6.30;99.90;;;;;;476569;249;27946;-73
2024/03/02 06:02:19;;;;;;;4.25;3.83;;;6.40;99.90;;;;;;477066;249;29213;-75
2024/03/02 06:04:21;;;;;;;5.00;3.53;;;6.30;99.90;;;;;;468153;251;27509;-73
2024/03/02 06:06:22;;;;;;;4.00;3.30;;;6.30;99.90;;;;;;477045;249;27982;-73
2024/03/02 06:08:23;;;;;;;4.80;3.90;;;6.40;99.90;;;;;;468156;251;27541;-73
2024/03/02 06:10:25;;;;;;;3.95;3.55;;;6.40;99.90;;;;;;477014;249;27425;-73
2024/03/02 06:12:26;;;;;;;4.25;3.85;;;6.40;99.90;;;;;;468191;251;27493;-73
2024/03/02 06:14:27;;;;;;;4.00;3.50;;;6.40;99.90;;;;;;477044;249;27498;-73
2024/03/02 06:16:28;;;;;;;5.05;3.95;;;6.50;99.90;;;;;;468135;251;28076;-73
2024/03/02 06:18:29;;;;;;;5.32;3.97;;;6.50;99.90;;;;;;476995;249;28001;-72
2024/03/02 06:20:33;;;;;;;4.60;3.53;;;6.50;99.90;;;;;;468174;251;28185;-73
2024/03/02 06:22:35;;;;;;;4.60;3.17;;;6.50;99.90;;;;;;477032;249;27402;-73
2024/03/02 06:24:36;;;;;;;3.87;3.10;;;6.50;99.90;;;;;;468133;251;27641;-74
2024/03/02 06:26:37;;;;;;;3.90;3.50;;;6.50;99.90;;;;;;477012;249;27410;-73
2024/03/02 06:28:38;;;;;;;5.72;4.10;;;6.50;99.90;;;;;;468099;251;28091;-73
2024/03/02 06:30:40;;;;;;;4.87;4.35;;;6.50;99.90;;;;;;477066;249;28010;-73
2024/03/02 06:32:41;;;;;;;10.27;5.65;;;6.50;99.90;;;;;;468177;251;27418;-72
2024/03/02 06:34:42;;;;;;;7.53;4.70;;;6.50;99.90;;;;;;477002;249;27446;-73
2024/03/02 06:36:43;;;;;;;4.90;3.87;;;6.60;99.90;;;;;;468113;251;28863;-73
2024/03/02 06:38:45;;;;;;;5.37;3.85;;;6.60;99.90;;;;;;476920;249;28133;-73
2024/03/02 06:40:46;;;;;;;5.20;3.22;;;6.60;99.90;;;;;;468147;251;27470;-75
2024/03/02 06:42:47;;;;;;;4.37;3.97;;;6.60;99.90;;;;;;477014;249;27494;-73
2024/03/02 06:44:48;;;;;;;4.10;3.70;;;6.60;99.90;;;;;;468135;251;29314;-73
2024/03/02 06:46:50;;;;;;;3.50;3.20;;;6.70;99.90;;;;;;476992;249;29418;-73
2024/03/02 06:48:51;;;;;;;3.40;3.10;;;6.70;99.90;;;;;;468145;251;28778;-73
2024/03/02 06:50:52;;;;;;;4.50;3.17;;;6.70;99.90;;;;;;477028;249;28656;-73
2024/03/02 06:52:55;;;;;;;3.85;3.08;;;6.70;99.90;;;;;;468123;251;28858;-73
2024/03/02 06:54:55;;;;;;;3.85;3.30;;;6.80;99.90;;;;;;476880;249;27442;-74
2024/03/02 06:56:56;;;;;;;3.53;3.00;;;6.80;99.90;;;;;;468114;251;27478;-73
2024/03/02 06:58:57;;;;;;;3.28;2.97;;;6.80;99.90;;;;;;476885;249;28755;-73
2024/03/02 07:01:00;;;;;;;4.30;3.40;;;6.80;99.90;;;;;;468117;251;27518;-74
2024/03/02 07:03:00;;;;;;;4.00;3.50;;;6.90;99.90;;;;;;476784;249;28051;-73
2024/03/02 07:05:01;;;;;;;3.33;3.03;;;6.90;99.90;;;;;;468112;251;28845;-73
2024/03/02 07:07:02;;;;;;;3.53;3.23;;;7.00;99.90;;;;;;476994;249;28636;-74
2024/03/02 07:09:03;;;;;;;4.03;3.47;;;7.00;99.90;;;;;;468126;251;28160;-73
2024/03/02 07:11:05;;;;;;;5.53;3.10;;;7.00;99.90;;;;;;477015;249;27917;-74
2024/03/02 07:13:06;;;;;;;3.40;3.10;;;7.10;99.90;;;;;;468122;251;28129;-73
2024/03/02 07:17:09;;;;;;;3.67;3.30;;;7.20;99.90;;;;;;468108;251;27561;-74
2024/03/02 07:19:10;;;;;;;3.10;2.83;;;7.20;99.90;;;;;;477003;249;27999;-72
2024/03/02 07:21:11;;;;;;;3.80;3.50;;;7.20;99.90;;;;;;468116;251;28868;-73
2024/03/02 07:23:12;;;;;;;3.53;3.23;;;7.20;99.90;;;;;;476976;249;27842;-73
2024/03/02 07:25:13;;;;;;;4.30;3.37;;;7.10;99.90;;;;;;468163;251;28229;-73
2024/03/02 07:27:15;;;;;;;3.80;3.50;;;7.10;99.90;;;;;;476969;249;28634;-73
2024/03/02 07:29:16;;;;;;;3.80;2.90;;;7.10;99.90;;;;;;468124;251;28116;-73
2024/03/02 07:31:17;;;;;;;4.17;3.77;;;7.20;99.90;;;;;;476985;249;27687;-73
2024/03/02 07:33:21;;;;;;;3.03;2.73;;;7.20;99.90;;;;;;468109;251;28758;-74
2024/03/02 07:35:21;;;;;;;3.63;3.30;;;7.30;99.90;;;;;;476871;249;28496;-72
2024/03/02 07:37:21;;;;;;;3.43;3.13;;;7.30;99.90;;;;;;467987;254;28063;-74
2024/03/02 07:39:22;;;;;;;3.23;2.90;;;7.40;99.90;;;;;;476980;249;28353;-73
2024/03/02 07:41:23;;;;;;;6.03;3.00;;;7.40;99.90;;;;;;468119;251;28255;-73
2024/03/02 07:43:25;;;;;;;2.70;2.50;;;7.50;99.90;;;;;;477025;249;28259;-75
2024/03/02 07:45:26;;;;;;;3.93;3.13;;;7.50;99.90;;;;;;468186;251;27976;-74
2024/03/02 07:47:27;;;;;;;4.30;3.70;;;7.50;99.90;;;;;;476973;249;28038;-73
2024/03/02 07:49:28;;;;;;;4.70;3.40;;;7.60;99.90;;;;;;468113;251;27783;-73
2024/03/02 07:51:30;;;;;;;3.50;3.17;;;7.60;99.90;;;;;;477006;249;27998;-73
2024/03/02 07:53:31;;;;;;;3.23;2.93;;;7.60;99.90;;;;;;468119;251;28027;-74
2024/03/02 07:55:32;;;;;;;3.47;2.73;;;7.60;99.90;;;;;;477017;249;27635;-74
2024/03/02 07:57:33;;;;;;;3.50;3.07;;;7.60;99.90;;;;;;468026;251;28060;-73
2024/03/02 07:59:35;;;;;;;3.57;3.07;;;7.70;99.90;;;;;;476983;249;27878;-73
2024/03/02 08:01:36;;;;;;;2.63;2.40;;;7.70;99.90;;;;;;468156;251;27788;-73
2024/03/02 08:03:37;;;;;;;4.63;3.07;;;7.80;99.90;;;;;;476967;249;27927;-75
2024/03/02 08:05:38;;;;;;;3.13;2.63;;;7.90;99.90;;;;;;468104;251;27909;-73
2024/03/02 08:07:40;;;;;;;4.60;3.03;;;8.00;99.90;;;;;;476905;249;27958;-73
2024/03/02 08:09:41;;;;;;;3.53;2.70;;;8.10;99.90;;;;;;468117;251;28004;-74
2024/03/02 08:11:42;;;;;;;3.73;2.80;;;8.10;99.90;;;;;;477019;249;28025;-73
2024/03/02 08:13:43;;;;;;;2.60;2.40;;;8.20;99.90;;;;;;468104;251;28252;-74
2024/03/02 08:15:45;;;;;;;3.63;3.00;;;8.30;99.90;;;;;;476966;249;28361;-73
2024/03/02 08:17:49;;;;;;;3.43;2.83;;;8.40;99.90;;;;;;468041;251;28424;-73
2024/03/02 08:19:48;;;;;;;2.60;2.40;;;8.50;99.90;;;;;;476838;249;28492;-75
2024/03/02 08:21:48;;;;;;;2.70;2.50;;;8.70;99.90;;;;;;468143;251;28472;-73
2024/03/02 08:23:50;;;;;;;2.30;2.10;;;8.70;99.90;;;;;;476980;249;28813;-74
2024/03/02 08:25:51;;;;;;;3.67;2.70;;;8.70;99.90;;;;;;468094;251;27823;-73
2024/03/02 08:27:52;;;;;;;2.70;2.50;;;8.60;99.90;;;;;;476860;249;27952;-73
2024/03/02 08:29:53;;;;;;;2.47;2.27;;;8.60;99.90;;;;;;468163;251;27905;-75
2024/03/02 08:31:55;;;;;;;3.17;2.40;;;8.60;99.90;;;;;;476999;249;28049;-73
2024/03/02 08:33:57;;;;;;;3.23;2.40;;;8.60;99.90;;;;;;468094;253;27929;-74
2024/03/02 08:35:57;;;;;;;2.80;2.30;;;8.60;99.90;;;;;;476931;249;27785;-73
2024/03/02 08:37:58;;;;;;;3.73;2.50;;;8.60;99.90;;;;;;468098;251;27902;-72
2024/03/02 08:40:00;;;;;;;2.07;1.97;;;8.60;99.90;;;;;;476882;249;27812;-74
2024/03/02 08:42:01;;;;;;;2.33;1.93;;;8.70;99.90;;;;;;468119;251;27950;-73
2024/03/02 08:44:02;;;;;;;4.67;2.30;;;8.70;99.90;;;;;;476964;249;27927;-73
2024/03/02 08:46:03;;;;;;;2.50;2.03;;;8.80;99.90;;;;;;468091;251;27932;-75
2024/03/02 08:48:05;;;;;;;2.13;2.03;;;8.80;99.90;;;;;;476962;249;28198;-73
2024/03/02 08:50:06;;;;;;;2.13;1.93;;;8.90;99.90;;;;;;468118;251;28419;-74
2024/03/02 08:52:07;;;;;;;2.10;2.00;;;8.90;99.90;;;;;;476974;249;28435;-73
2024/03/02 08:54:08;;;;;;;2.47;1.90;;;9.00;99.90;;;;;;468059;251;28556;-73
2024/03/02 08:56:10;;;;;;;3.20;2.63;;;9.10;99.90;;;;;;477037;249;28192;-74
2024/03/02 08:58:11;;;;;;;2.13;2.00;;;9.10;99.90;;;;;;468095;251;27957;-72
2024/03/02 09:00:12;;;;;;;2.10;2.00;;;9.20;99.90;;;;;;476993;249;28003;-73
2024/03/02 09:02:13;;;;;;;2.40;2.20;;;9.30;99.90;;;;;;468093;251;27853;-74
2024/03/02 09:04:15;;;;;;;3.40;2.10;;;9.30;99.90;;;;;;476956;249;27992;-73
2024/03/02 09:06:22;;;;;;;2.30;2.10;;;9.30;99.90;;;;;;468043;254;27964;-74
2024/03/02 09:08:20;;;;;;;2.20;1.73;;;9.40;99.90;;;;;;476277;249;27993;-73
2024/03/02 09:10:22;;;;;;;1.90;1.80;;;9.50;99.90;;;;;;476984;249;28011;-73
2024/03/02 09:12:23;;;;;;;1.97;1.80;;;9.50;99.90;;;;;;468084;251;28224;-74
2024/03/02 09:14:24;;;;;;;2.00;1.80;;;9.60;99.90;;;;;;477032;249;28423;-73
2024/03/02 09:16:30;;;;;;;2.03;1.93;;;9.50;99.90;;;;;;468156;251;27803;-73
2024/03/02 09:18:26;;;;;;;3.10;1.77;;;9.60;99.90;;;;;;476607;249;27936;-73
2024/03/02 09:20:28;;;;;;;2.20;2.00;;;9.70;99.90;;;;;;468103;251;28070;-73
2024/03/02 09:22:30;;;;;;;2.33;2.10;;;9.80;99.90;;;;;;476957;249;27943;-75
2024/03/02 09:24:31;;;;;;;2.73;1.93;;;9.90;99.90;;;;;;468123;251;28429;-75
2024/03/02 09:26:32;;;;;;;2.13;1.93;;;9.90;99.90;;;;;;477015;249;27695;-74
2024/03/02 09:28:33;;;;;;;1.83;1.73;;;9.90;99.90;;;;;;468087;251;27918;-73
2024/03/02 09:30:35;;;;;;;2.13;2.03;;;10.00;99.90;;;;;;476967;249;27885;-73
2024/03/02 09:32:36;;;;;;;3.20;2.10;;;10.00;99.90;;;;;;468093;251;28456;-73
2024/03/02 09:34:37;;;;;;;2.23;2.00;;;9.90;99.90;;;;;;477007;249;28387;-73
2024/03/02 09:36:38;;;;;;;2.23;2.03;;;10.00;99.90;;;;;;468114;251;28343;-75
2024/03/02 09:38:40;;;;;;;2.20;1.90;;;10.00;99.90;;;;;;476942;249;28301;-73
2024/03/02 09:40:41;;;;;;;1.77;1.67;;;10.10;99.90;;;;;;468095;251;27850;-73
2024/03/02 09:42:42;;;;;;;1.97;1.80;;;10.00;99.90;;;;;;476983;249;28041;-73
2024/03/02 09:44:43;;;;;;;2.20;2.00;;;10.10;99.90;;;;;;468128;251;27989;-73
2024/03/02 09:46:47;;;;;;;4.00;1.80;;;10.10;99.90;;;;;;477015;249;27931;-73
2024/03/02 09:48:46;;;;;;;2.37;2.10;;;10.10;99.90;;;;;;467942;254;28115;-73
2024/03/02 09:50:47;;;;;;;2.40;2.20;;;10.20;99.90;;;;;;476852;249;28053;-73
2024/03/02 09:52:49;;;;;;;5.70;2.90;;;10.30;99.90;;;;;;468053;251;28520;-75
2024/03/02 09:54:50;;;;;;;1.73;1.63;;;10.30;99.90;;;;;;476973;249;28109;-74
2024/03/02 09:56:51;;;;;;;3.03;2.30;;;10.40;99.90;;;;;;468099;251;28167;-74
2024/03/02 09:58:52;;;;;;;2.50;2.30;;;10.40;99.90;;;;;;476942;249;28510;-74
2024/03/02 10:00:53;;;;;;;5.70;4.00;;;10.50;99.90;;;;;;468108;251;28611;-73
2024/03/02 10:02:58;;;;;;;2.20;2.03;;;10.60;99.90;;;;;;477007;249;28610;-80
2024/03/02 10:04:57;;;;;;;2.73;2.43;;;10.60;99.90;;;;;;467899;254;28091;-73
2024/03/02 10:06:58;;;;;;;2.33;2.13;;;10.60;99.90;;;;;;476981;249;28047;-74
2024/03/02 10:09:00;;;;;;;3.53;3.07;;;10.80;99.90;;;;;;468102;251;27924;-73
2024/03/02 10:11:01;;;;;;;3.37;2.83;;;10.80;99.90;;;;;;477018;249;27971;-74
2024/03/02 10:13:02;;;;;;;5.77;4.30;;;10.90;99.90;;;;;;468086;251;28006;-73
2024/03/02 10:15:04;;;;;;;4.03;3.33;;;11.00;99.90;;;;;;476975;249;28182;-73
2024/03/02 10:17:05;;;;;;;2.00;1.80;;;11.10;99.90;;;;;;468067;254;28033;-75
2024/03/02 10:19:06;;;;;;;3.13;2.83;;;11.20;99.90;;;;;;477023;249;28004;-73
2024/03/02 10:21:07;;;;;;;2.30;2.00;;;11.20;99.90;;;;;;468112;251;28603;-74
2024/03/02 10:23:08;;;;;;;2.00;1.70;;;11.30;99.90;;;;;;476997;249;28445;-73
2024/03/02 10:25:10;;;;;;;3.57;1.87;;;11.40;99.90;;;;;;468098;251;28537;-73
2024/03/02 10:27:11;;;;;;;1.97;1.60;;;11.50;99.90;;;;;;476997;249;28377;-75
2024/03/02 10:29:12;;;;;;;1.57;1.47;;;11.60;99.90;;;;;;468138;251;28136;-73
2024/03/02 10:31:13;;;;;;;1.53;1.43;;;11.50;99.90;;;;;;477001;249;28382;-73
2024/03/02 10:33:15;;;;;;;1.40;1.30;;;11.50;99.90;;;;;;468134;251;28207;-73
2024/03/02 10:35:16;;;;;;;1.50;1.40;;;11.60;99.90;;;;;;477052;249;28374;-73
2024/03/02 10:37:17;;;;;;;2.03;1.60;;;11.70;99.90;;;;;;468139;251;28426;-74
2024/03/02 10:39:19;;;;;;;1.73;1.33;;;11.70;99.90;;;;;;477012;249;28350;-73
2024/03/02 10:41:20;;;;;;;1.37;1.27;;;11.70;99.90;;;;;;468150;251;28512;-73
2024/03/02 10:43:21;;;;;;;1.40;1.30;;;11.70;99.90;;;;;;477031;249;28294;-73
2024/03/02 10:45:22;;;;;;;1.90;1.80;;;11.80;99.90;;;;;;468154;251;29034;-72
2024/03/02 10:47:24;;;;;;;1.30;1.30;;;11.90;99.90;;;;;;476960;249;28902;-73